map of SCE home
SCE - Airport
Location
City:  State College, Pennsylvania, United States
Name:University Park Airport
ICAO:KUNV
IATA:SCE
FAA LID:UNV

Details
Type:Airport (Part 139 Class I)
Use:Public/Civil
Latitude:4051'00"N (40.850000)
Longitude:7750'51"W (-77.847582)
Datum:WGS 1984
Elevation:1231 ft (375 m)
Variation:10.77W (WMM2015 magnetic declination)
-0.00 annual change
Runways:1
Longest:6701 × 150 ft (2042 × 45.5 m), paved

Time
Time Zone:UTC-5 (DST-4)
Local Time:

Weather
METAR:KUNV 210935Z AUTO 30018G28KT 10SM SCT018 BKN025 M17/M22 A3004 RMK AO2 T11731225
TAF:KUNV 210550Z 2106/2206 29020G30KT P6SM SCT030
FM220000 30015G20KT P6SM SCT150

Related Locations
Nearby:
Farthest:YAUG: 11597 mi / 18664 km
Augusta [Augusta Airport], WA, AU

Find:

   beyond  
but within

Other Information
Maps:
NOTAMs:
Links:
Sources:

  
  • flag of United States
  • flag of Pennsylvania
  

Airport Diagram

Airport diagram for SCE

Airport diagram PDF from FAA

Sectional Chart

Flight Planning
at skyvector.com

Satellite Image

Google Maps Satellite view

 

Copyright © 2004-2019 Karl L. Swartz. All rights reserved.
The Great Circle Mapper name and logo are trademarks of the Great Circle Mapper.
All other trademarks mentioned herein belong to their respective owners.
Please see credits for attibutions and further copyright information.

  Follow gcmap on Facebook Follow gcmap on Twitter Follow gcmap on Google+ GCmap on LinkedIn

hCard Microformat

Geo Microformat